createdAt,value
2018-02-17T00:00:11.883Z,44.50
2018-02-17T00:02:40.852Z,42.17
2018-02-17T00:05:10.196Z,44.83
2018-02-17T00:07:39.373Z,51.33
2018-02-17T00:10:08.572Z,52.50
2018-02-17T00:12:38.581Z,49.80
2018-02-17T00:15:08.547Z,50.13
2018-02-17T00:17:37.820Z,52.37
2018-02-17T00:20:07.079Z,49.00
2018-02-17T00:22:36.340Z,46.50
2018-02-17T00:25:05.563Z,51.33
2018-02-17T00:27:35.558Z,44.40
2018-02-17T00:30:04.786Z,45.07
2018-02-17T00:32:34.011Z,50.03
2018-02-17T00:35:03.264Z,45.47
2018-02-17T00:37:32.511Z,45.77
2018-02-17T00:40:01.755Z,49.00
2018-02-17T00:42:31.183Z,41.63
2018-02-17T00:45:01.166Z,45.33
2018-02-17T00:47:30.772Z,45.10
2018-02-17T00:50:05.430Z,45.57
2018-02-17T00:52:35.520Z,42.83
2018-02-17T00:55:04.773Z,40.47
2018-02-17T00:57:34.000Z,39.67
2018-02-17T01:00:03.296Z,49.60
2018-02-17T01:02:32.511Z,38.73
2018-02-17T01:05:01.790Z,43.80
2018-02-17T01:07:31.782Z,44.17
2018-02-17T01:10:01.036Z,38.27
2018-02-17T01:12:30.215Z,38.33
2018-02-17T01:15:00.224Z,37.00
2018-02-17T01:17:29.455Z,35.77
2018-02-17T01:19:58.697Z,33.70
2018-02-17T01:22:27.958Z,42.93
2018-02-17T01:24:57.195Z,40.17
2018-02-17T01:27:26.466Z,36.17
2018-02-17T01:29:55.732Z,38.93
2018-02-17T01:32:25.742Z,36.97
2018-02-17T01:34:54.996Z,36.40
2018-02-17T01:37:29.820Z,35.33
2018-02-17T01:39:59.116Z,35.00
2018-02-17T01:42:28.309Z,32.27
2018-02-17T01:44:57.543Z,33.33
2018-02-17T01:47:26.838Z,41.60
2018-02-17T01:49:56.110Z,42.83
2018-02-17T01:52:25.346Z,45.00
2018-02-17T01:54:59.276Z,45.20
2018-02-17T01:57:28.497Z,47.07
2018-02-17T01:59:57.756Z,40.10
2018-02-17T02:02:27.046Z,34.67
2018-02-17T02:04:56.297Z,38.90
2018-02-17T02:07:25.540Z,35.07
2018-02-17T02:09:58.380Z,35.83
2018-02-17T02:12:27.611Z,38.70
2018-02-17T02:14:56.824Z,38.30
2018-02-17T02:17:25.971Z,35.93
2018-02-17T02:19:55.260Z,38.00
2018-02-17T02:22:24.622Z,34.87
2018-02-17T02:24:53.967Z,31.90
2018-02-17T02:27:23.308Z,35.20
2018-02-17T02:29:52.795Z,39.17
2018-02-17T02:32:22.190Z,37.67
2018-02-17T02:34:52.332Z,36.73
2018-02-17T02:37:21.748Z,36.97
2018-02-17T02:39:51.057Z,37.93
2018-02-17T02:42:20.369Z,36.93
2018-02-17T02:44:49.678Z,35.73
2018-02-17T02:47:18.991Z,38.87
2018-02-17T02:49:49.389Z,35.93
2018-02-17T02:52:18.688Z,35.33
2018-02-17T02:54:47.988Z,32.13
2018-02-17T02:57:17.277Z,37.33
2018-02-17T02:59:46.603Z,35.33
2018-02-17T03:02:15.873Z,33.23
2018-02-17T03:04:45.158Z,38.17
2018-02-17T03:07:14.422Z,35.70
2018-02-17T03:09:44.477Z,32.13
2018-02-17T03:12:13.738Z,35.73
2018-02-17T03:14:43.054Z,32.80
2018-02-17T03:17:13.162Z,30.00
2018-02-17T03:19:42.437Z,33.47
2018-02-17T03:22:11.787Z,34.57
2018-02-17T03:24:41.098Z,36.80
2018-02-17T03:27:10.375Z,34.80
2018-02-17T03:29:39.649Z,32.90
2018-02-17T03:32:08.970Z,36.33
2018-02-17T03:34:38.246Z,37.30
2018-02-17T03:37:07.569Z,40.47
2018-02-17T03:39:36.928Z,34.00
2018-02-17T03:42:07.032Z,52.07
2018-02-17T03:44:36.327Z,52.20
2018-02-17T03:47:05.577Z,38.07
2018-02-17T03:49:35.672Z,31.03
2018-02-17T03:52:04.941Z,40.17
2018-02-17T03:54:35.259Z,39.27
2018-02-17T03:57:05.290Z,33.40
2018-02-17T03:59:35.315Z,35.97
2018-02-17T04:02:04.628Z,28.00
2018-02-17T04:04:33.977Z,34.67
2018-02-17T04:07:03.308Z,32.10
2018-02-17T04:09:32.549Z,39.00
2018-02-17T04:12:01.806Z,28.57
2018-02-17T04:14:31.108Z,31.43
2018-02-17T04:17:00.414Z,38.07
2018-02-17T04:19:29.767Z,35.03
2018-02-17T04:21:59.097Z,40.77
2018-02-17T04:24:28.339Z,37.23
2018-02-17T04:26:57.627Z,33.60
2018-02-17T04:29:26.901Z,41.33
2018-02-17T04:31:56.306Z,39.30
2018-02-17T04:34:26.382Z,39.10
2018-02-17T04:36:55.856Z,48.80
2018-02-17T04:39:25.256Z,36.57
2018-02-17T04:41:54.578Z,41.27
2018-02-17T04:47:27.053Z,34.27
2018-02-17T04:50:01.869Z,42.93
2018-02-17T04:52:36.838Z,40.53
2018-02-17T04:55:23.049Z,45.37
2018-02-17T04:57:54.476Z,43.13
2018-02-17T05:00:44.525Z,45.60
2018-02-17T05:06:36.720Z,40.17
2018-02-17T05:09:06.062Z,43.83
2018-02-17T05:11:36.019Z,38.63
2018-02-17T05:14:20.222Z,39.30
2018-02-17T05:16:55.950Z,39.57
2018-02-17T05:19:31.794Z,42.87
2018-02-17T05:25:21.566Z,39.70
2018-02-17T05:27:53.458Z,31.93
2018-02-17T05:30:23.924Z,32.00
2018-02-17T05:33:07.097Z,33.87
2018-02-17T05:35:36.470Z,37.73
2018-02-17T05:38:05.739Z,41.00
2018-02-17T05:40:45.904Z,37.07
2018-02-17T05:43:15.232Z,40.73
2018-02-17T05:46:00.182Z,35.73
2018-02-17T05:48:33.067Z,29.30
2018-02-17T05:51:07.543Z,37.30
2018-02-17T05:53:36.791Z,33.53
2018-02-17T05:56:06.073Z,34.97
2018-02-17T05:58:37.199Z,34.57
2018-02-17T06:01:07.342Z,32.93
2018-02-17T06:03:36.687Z,34.07
2018-02-17T06:06:06.777Z,37.37
2018-02-17T06:08:36.120Z,30.40
2018-02-17T06:11:05.479Z,31.80
2018-02-17T06:13:34.740Z,32.00
2018-02-17T06:16:05.008Z,26.57
2018-02-17T06:18:35.046Z,29.70
2018-02-17T06:21:04.396Z,30.37
2018-02-17T06:23:34.479Z,30.73
2018-02-17T06:26:03.791Z,30.43
2018-02-17T06:28:33.119Z,30.73
2018-02-17T06:31:03.171Z,29.33
2018-02-17T06:33:33.621Z,27.40
2018-02-17T06:36:02.902Z,26.80
2018-02-17T06:38:32.960Z,27.00
2018-02-17T06:41:02.248Z,27.27
2018-02-17T06:43:31.506Z,23.50
2018-02-17T06:46:00.943Z,26.27
2018-02-17T06:48:30.244Z,25.87
2018-02-17T06:50:59.515Z,24.67
2018-02-17T06:53:28.801Z,28.67
2018-02-17T06:55:58.143Z,25.00
2018-02-17T06:58:27.446Z,24.70
2018-02-17T07:00:56.593Z,25.33
2018-02-17T07:03:39.554Z,19.87
2018-02-17T07:06:08.863Z,24.47
2018-02-17T07:08:38.115Z,24.40
2018-02-17T07:11:07.292Z,24.70
2018-02-17T07:13:36.546Z,23.87
2018-02-17T07:16:05.808Z,21.80
2018-02-17T07:18:35.025Z,27.17
2018-02-17T07:21:04.321Z,30.50
2018-02-17T07:23:33.593Z,28.17
2018-02-17T07:26:02.821Z,25.10
2018-02-17T07:28:32.050Z,24.83
2018-02-17T07:31:01.286Z,28.33
2018-02-17T07:33:30.529Z,25.97
2018-02-17T07:35:59.766Z,25.07
2018-02-17T07:38:28.976Z,25.07
2018-02-17T07:40:58.178Z,27.53
2018-02-17T07:43:28.165Z,23.40
2018-02-17T07:45:57.382Z,25.90
2018-02-17T07:48:26.638Z,26.80
2018-02-17T07:50:55.906Z,25.63
2018-02-17T07:53:25.106Z,22.67
2018-02-17T07:55:54.363Z,27.97
2018-02-17T07:58:24.443Z,21.77
2018-02-17T08:00:53.829Z,30.17
2018-02-17T08:03:23.104Z,28.93
2018-02-17T08:05:53.092Z,24.30
2018-02-17T08:08:22.374Z,27.97
2018-02-17T08:10:51.648Z,25.13
2018-02-17T08:13:20.894Z,26.83
2018-02-17T08:15:50.113Z,26.63
2018-02-17T08:18:19.358Z,24.33
2018-02-17T08:20:48.532Z,26.37
2018-02-17T08:23:17.775Z,22.17
2018-02-17T08:25:46.983Z,20.53
2018-02-17T08:28:16.250Z,22.03
2018-02-17T08:30:46.331Z,24.67
2018-02-17T08:33:35.072Z,21.20
2018-02-17T08:36:14.755Z,27.00
2018-02-17T08:38:46.063Z,26.70
2018-02-17T08:41:15.268Z,23.80
2018-02-17T08:43:48.734Z,25.27
2018-02-17T08:46:18.012Z,26.50
2018-02-17T08:48:47.230Z,25.70
2018-02-17T08:51:16.503Z,24.47
2018-02-17T08:53:50.088Z,28.67
2018-02-17T08:56:25.067Z,20.63
2018-02-17T08:58:58.778Z,21.60
2018-02-17T09:01:27.996Z,22.67
2018-02-17T09:03:57.267Z,22.20
2018-02-17T09:06:26.533Z,23.27
2018-02-17T09:08:55.781Z,24.57
2018-02-17T09:11:24.991Z,21.87
2018-02-17T09:14:01.674Z,21.17
2018-02-17T09:16:30.894Z,23.80
2018-02-17T09:19:02.097Z,22.70
2018-02-17T09:21:32.130Z,23.30
2018-02-17T09:24:01.354Z,20.97
2018-02-17T09:26:30.669Z,23.13
2018-02-17T09:28:59.873Z,19.73
2018-02-17T09:31:29.059Z,19.90
2018-02-17T09:33:59.077Z,21.27
2018-02-17T09:36:28.310Z,19.40
2018-02-17T09:38:57.534Z,20.87
2018-02-17T09:41:26.766Z,18.93
2018-02-17T09:43:55.996Z,20.07
2018-02-17T09:46:25.254Z,14.43
2018-02-17T09:48:54.482Z,16.37
2018-02-17T09:51:34.904Z,16.03
2018-02-17T09:54:04.114Z,18.83
2018-02-17T09:56:33.351Z,16.63
2018-02-17T09:59:02.605Z,20.37
2018-02-17T10:01:32.616Z,17.73
2018-02-17T10:04:02.621Z,20.40
2018-02-17T10:06:31.908Z,19.60
2018-02-17T10:09:01.160Z,16.90
2018-02-17T10:11:33.503Z,17.60
2018-02-17T10:14:15.417Z,18.40
2018-02-17T10:16:44.623Z,19.63
2018-02-17T10:19:13.830Z,18.33
2018-02-17T10:21:50.392Z,18.10
2018-02-17T10:24:20.384Z,15.80
2018-02-17T10:26:49.568Z,16.53
2018-02-17T10:29:21.820Z,15.43
2018-02-17T10:31:51.102Z,13.87
2018-02-17T10:34:46.129Z,16.53
2018-02-17T10:37:15.348Z,15.60
2018-02-17T10:39:44.557Z,18.00
2018-02-17T10:42:13.732Z,16.60
2018-02-17T10:44:44.999Z,14.80
2018-02-17T10:47:14.176Z,16.30
2018-02-17T10:52:22.862Z,17.57
2018-02-17T10:54:52.036Z,19.03
2018-02-17T10:57:21.278Z,16.70
2018-02-17T10:59:50.470Z,12.93
2018-02-17T11:02:23.724Z,17.13
2018-02-17T11:04:52.944Z,17.87
2018-02-17T11:07:22.014Z,19.40
2018-02-17T11:09:51.231Z,15.73
2018-02-17T11:12:20.524Z,16.97
2018-02-17T11:14:49.754Z,17.80
2018-02-17T11:17:19.009Z,19.43
2018-02-17T11:19:48.991Z,17.13
2018-02-17T11:22:18.196Z,19.53
2018-02-17T11:24:47.518Z,14.87
2018-02-17T11:27:17.242Z,19.00
2018-02-17T11:29:46.981Z,18.77
2018-02-17T11:32:16.266Z,22.13
2018-02-17T11:34:45.466Z,17.50
2018-02-17T11:37:14.703Z,14.90
2018-02-17T11:39:43.913Z,22.80
2018-02-17T11:42:13.187Z,16.17
2018-02-17T11:47:54.445Z,16.50
2018-02-17T11:50:23.691Z,16.97
2018-02-17T11:52:52.891Z,16.67
2018-02-17T11:55:22.168Z,22.10
2018-02-17T11:57:56.947Z,18.10
2018-02-17T12:00:26.168Z,15.33
2018-02-17T12:02:55.398Z,16.77
2018-02-17T12:05:33.204Z,17.73
2018-02-17T12:08:03.374Z,22.03
2018-02-17T12:10:32.626Z,17.50
2018-02-17T12:13:01.830Z,19.07
2018-02-17T12:15:36.064Z,20.17
2018-02-17T12:18:05.797Z,16.20
2018-02-17T12:20:35.858Z,18.20
2018-02-17T12:23:05.110Z,22.00
2018-02-17T12:25:34.350Z,18.77
2018-02-17T12:28:03.578Z,19.33
2018-02-17T12:30:33.569Z,16.97
2018-02-17T12:33:02.830Z,22.27
2018-02-17T12:35:32.050Z,20.23
2018-02-17T12:38:03.249Z,20.57
2018-02-17T12:40:32.524Z,18.23
2018-02-17T12:43:02.480Z,18.60
2018-02-17T12:45:31.711Z,20.33
2018-02-17T12:48:00.916Z,17.63
2018-02-17T12:50:30.192Z,19.57
2018-02-17T12:52:59.397Z,21.97
2018-02-17T12:55:28.649Z,18.97
2018-02-17T12:57:57.923Z,17.73
2018-02-17T13:00:27.892Z,16.27
2018-02-17T13:02:57.109Z,20.63
2018-02-17T13:05:26.368Z,19.87
2018-02-17T13:07:56.303Z,17.40
2018-02-17T13:10:25.538Z,19.57
2018-02-17T13:13:02.002Z,15.47
2018-02-17T13:15:31.253Z,20.67
2018-02-17T13:18:00.485Z,19.80
2018-02-17T13:20:29.716Z,18.23
2018-02-17T13:22:58.928Z,20.87
2018-02-17T13:25:28.121Z,21.33
2018-02-17T13:27:57.263Z,21.70
2018-02-17T13:30:26.463Z,16.07
2018-02-17T13:32:55.692Z,19.57
2018-02-17T13:35:24.941Z,19.33
2018-02-17T13:37:54.178Z,20.30
2018-02-17T13:40:30.044Z,19.07
2018-02-17T13:42:59.271Z,21.07
2018-02-17T13:45:30.126Z,18.87
2018-02-17T13:47:59.332Z,18.60
2018-02-17T13:50:28.573Z,18.67
2018-02-17T13:52:57.768Z,20.30
2018-02-17T13:55:27.025Z,20.67
2018-02-17T13:57:56.252Z,19.03
2018-02-17T14:00:25.473Z,16.37
2018-02-17T14:02:54.711Z,23.80
2018-02-17T14:05:24.687Z,17.73
2018-02-17T14:07:53.887Z,20.20
2018-02-17T14:10:23.130Z,21.27
2018-02-17T14:12:52.378Z,19.23
2018-02-17T14:15:21.613Z,20.87
2018-02-17T14:17:52.812Z,21.53
2018-02-17T14:20:22.032Z,18.53
2018-02-17T14:22:52.047Z,20.13
2018-02-17T14:25:21.295Z,21.20
2018-02-17T14:27:50.503Z,22.97
2018-02-17T14:30:19.724Z,21.30
2018-02-17T14:32:49.752Z,19.43
2018-02-17T14:35:18.959Z,18.03
2018-02-17T14:37:48.178Z,19.00
2018-02-17T14:40:17.364Z,31.50
2018-02-17T14:42:46.632Z,28.10
2018-02-17T14:45:15.805Z,25.67
2018-02-17T14:47:45.020Z,21.23
2018-02-17T14:50:14.256Z,21.17
2018-02-17T14:52:43.510Z,20.30
2018-02-17T14:55:13.494Z,21.50
2018-02-17T14:57:42.790Z,23.87
2018-02-17T15:00:12.776Z,19.40
2018-02-17T15:02:41.966Z,19.73
2018-02-17T15:05:11.239Z,28.53
2018-02-17T15:07:40.495Z,22.57
2018-02-17T15:10:09.700Z,21.70
2018-02-17T15:12:38.948Z,21.77
2018-02-17T15:15:08.945Z,21.37
2018-02-17T15:17:38.199Z,22.77
2018-02-17T15:20:07.434Z,20.90
2018-02-17T15:22:36.678Z,23.43
2018-02-17T15:25:05.912Z,23.53
2018-02-17T15:27:35.171Z,21.87
2018-02-17T15:30:04.423Z,24.90
2018-02-17T15:32:33.676Z,25.43
2018-02-17T15:35:03.655Z,23.50
2018-02-17T15:37:32.871Z,27.33
2018-02-17T15:40:02.134Z,23.67
2018-02-17T15:42:31.476Z,23.50
2018-02-17T15:45:00.679Z,23.33
2018-02-17T15:47:29.938Z,23.17
2018-02-17T15:49:59.167Z,22.63
2018-02-17T15:55:26.339Z,24.03
2018-02-17T15:57:55.543Z,23.70
2018-02-17T16:00:24.770Z,27.97
2018-02-17T16:02:54.004Z,24.27
2018-02-17T16:05:23.279Z,27.40
2018-02-17T16:07:52.505Z,26.03
2018-02-17T16:10:21.791Z,25.03
2018-02-17T16:12:50.983Z,25.43
2018-02-17T16:15:20.227Z,24.73
2018-02-17T16:18:02.671Z,25.13
2018-02-17T16:20:32.695Z,24.40
2018-02-17T16:23:01.937Z,26.47
2018-02-17T16:25:31.881Z,27.83
2018-02-17T16:28:01.139Z,27.90
2018-02-17T16:30:31.164Z,35.23
2018-02-17T16:33:00.396Z,30.77
2018-02-17T16:35:30.377Z,33.23
2018-02-17T16:37:59.597Z,25.07
2018-02-17T16:40:33.407Z,25.47
2018-02-17T16:43:02.630Z,28.07
2018-02-17T16:45:32.883Z,33.87
2018-02-17T16:48:03.120Z,32.50
2018-02-17T16:50:33.146Z,28.10
2018-02-17T16:53:03.198Z,31.83
2018-02-17T16:55:33.125Z,31.30
2018-02-17T16:58:03.167Z,28.10
2018-02-17T17:00:32.479Z,29.23
2018-02-17T17:03:01.753Z,35.03
2018-02-17T17:05:30.970Z,37.00
2018-02-17T17:11:02.555Z,32.70
2018-02-17T17:13:31.840Z,28.90
2018-02-17T17:16:01.066Z,29.50
2018-02-17T17:18:30.247Z,27.13
2018-02-17T17:20:59.485Z,26.27
2018-02-17T17:23:28.710Z,27.43
2018-02-17T17:25:58.023Z,32.73
2018-02-17T17:28:27.337Z,31.30
2018-02-17T17:30:56.611Z,28.47
2018-02-17T17:33:25.878Z,34.17
2018-02-17T17:38:53.219Z,27.43
2018-02-17T17:41:22.497Z,32.23
2018-02-17T17:43:51.895Z,29.60
2018-02-17T17:46:21.163Z,31.53
2018-02-17T17:48:50.395Z,31.97
2018-02-17T17:51:19.609Z,30.70
2018-02-17T17:56:50.308Z,32.37
2018-02-17T17:59:19.688Z,31.57
2018-02-17T18:01:48.881Z,29.90
2018-02-17T18:04:18.113Z,33.47
2018-02-17T18:06:47.395Z,34.97
2018-02-17T18:09:16.769Z,32.03
2018-02-17T18:11:46.152Z,30.03
2018-02-17T18:14:15.512Z,32.70
2018-02-17T18:16:44.736Z,32.60
2018-02-17T18:19:14.073Z,31.00
2018-02-17T18:21:43.351Z,32.17
2018-02-17T18:24:12.542Z,30.07
2018-02-17T18:26:41.777Z,33.10
2018-02-17T18:29:11.038Z,30.70
2018-02-17T18:31:40.998Z,33.17
2018-02-17T18:34:10.268Z,31.10
2018-02-17T18:36:39.500Z,31.63
2018-02-17T18:39:08.722Z,29.33
2018-02-17T18:41:37.965Z,30.80
2018-02-17T18:44:12.450Z,30.97
2018-02-17T18:46:45.570Z,30.77
2018-02-17T18:49:39.528Z,32.00
2018-02-17T18:52:08.797Z,31.47
2018-02-17T18:54:44.980Z,31.80
2018-02-17T18:57:16.264Z,25.80
2018-02-17T18:59:54.208Z,30.43
2018-02-17T19:02:38.841Z,32.27
2018-02-17T19:05:08.103Z,36.00
2018-02-17T19:08:57.726Z,33.03
2018-02-17T19:11:26.977Z,29.27
2018-02-17T19:13:57.052Z,32.17
2018-02-17T19:16:26.383Z,28.67
2018-02-17T19:18:55.709Z,30.17
2018-02-17T19:21:25.744Z,26.77
2018-02-17T19:23:55.053Z,30.17
2018-02-17T19:26:24.351Z,34.40
2018-02-17T19:28:53.729Z,29.63
2018-02-17T19:31:23.005Z,31.00
2018-02-17T19:33:53.340Z,34.83
2018-02-17T19:36:22.681Z,28.97
2018-02-17T19:38:52.078Z,26.97
2018-02-17T19:41:21.697Z,28.20
2018-02-17T19:43:51.151Z,30.00
2018-02-17T19:46:20.570Z,29.97
2018-02-17T19:48:49.915Z,27.60
2018-02-17T19:51:19.382Z,29.17
2018-02-17T19:53:48.650Z,28.90
2018-02-17T19:56:18.030Z,27.90
2018-02-17T19:58:47.397Z,29.00
2018-02-17T20:01:16.724Z,28.30
2018-02-17T20:03:46.012Z,29.83
2018-02-17T20:06:15.285Z,27.47
2018-02-17T20:08:44.559Z,25.60
2018-02-17T20:11:13.879Z,25.20
2018-02-17T20:13:43.196Z,29.30
2018-02-17T20:16:12.442Z,28.37
2018-02-17T20:18:41.749Z,31.10
2018-02-17T20:21:11.059Z,26.30
2018-02-17T20:23:40.447Z,32.40
2018-02-17T20:26:09.697Z,26.13
2018-02-17T20:28:38.981Z,27.00
2018-02-17T20:31:08.263Z,27.40
2018-02-17T20:33:37.542Z,29.23
2018-02-17T20:36:06.837Z,26.60
2018-02-17T20:38:36.127Z,29.30
2018-02-17T20:41:05.354Z,26.40
2018-02-17T20:43:34.583Z,26.27
2018-02-17T20:46:03.862Z,23.00
2018-02-17T20:48:33.121Z,26.63
2018-02-17T20:51:02.474Z,26.87
2018-02-17T20:53:32.492Z,29.13
2018-02-17T20:56:01.758Z,24.40
2018-02-17T20:58:31.021Z,22.87
2018-02-17T21:01:00.358Z,23.53
2018-02-17T21:03:29.627Z,27.73
2018-02-17T21:05:58.871Z,21.87
2018-02-17T21:08:28.203Z,22.73
2018-02-17T21:10:57.587Z,24.40
2018-02-17T21:13:26.942Z,25.33
2018-02-17T21:15:56.203Z,23.10
2018-02-17T21:18:25.468Z,23.53
2018-02-17T21:20:54.919Z,19.87
2018-02-17T21:23:24.211Z,22.77
2018-02-17T21:25:53.537Z,23.23
2018-02-17T21:28:23.522Z,20.77
2018-02-17T21:30:52.852Z,22.23
2018-02-17T21:33:22.198Z,21.83
2018-02-17T21:35:52.308Z,24.53
2018-02-17T21:38:21.699Z,23.53
2018-02-17T21:40:51.055Z,22.07
2018-02-17T21:43:20.365Z,25.33
2018-02-17T21:45:49.664Z,28.80
2018-02-17T21:48:19.054Z,24.53
2018-02-17T21:50:48.472Z,24.03
2018-02-17T21:53:19.849Z,23.20
2018-02-17T21:55:49.346Z,21.70
2018-02-17T21:58:18.684Z,23.17
2018-02-17T22:00:48.898Z,23.67
2018-02-17T22:03:18.317Z,23.70
2018-02-17T22:05:47.649Z,20.10
2018-02-17T22:08:16.975Z,20.73
2018-02-17T22:10:46.329Z,27.97
2018-02-17T22:13:15.628Z,22.07
2018-02-17T22:15:45.690Z,23.60
2018-02-17T22:18:15.019Z,24.30
2018-02-17T22:20:44.321Z,23.27
2018-02-17T22:23:13.593Z,22.83
2018-02-17T22:25:42.914Z,26.67
2018-02-17T22:28:12.151Z,25.60
2018-02-17T22:30:42.159Z,26.07
2018-02-17T22:33:11.467Z,27.77
2018-02-17T22:35:40.689Z,21.20
2018-02-17T22:38:10.776Z,25.17
2018-02-17T22:40:40.045Z,23.27
2018-02-17T22:43:09.355Z,24.97
2018-02-17T22:45:39.449Z,24.03
2018-02-17T22:48:08.710Z,27.57
2018-02-17T22:50:38.026Z,24.63
2018-02-17T22:53:07.327Z,26.20
2018-02-17T22:55:36.534Z,26.67
2018-02-17T22:58:05.803Z,28.70
2018-02-17T23:00:35.083Z,27.67
2018-02-17T23:03:05.084Z,27.93
2018-02-17T23:05:34.417Z,27.43
2018-02-17T23:08:04.453Z,29.47
2018-02-17T23:10:33.741Z,28.00
2018-02-17T23:13:03.026Z,26.97
2018-02-17T23:15:32.305Z,26.87
2018-02-17T23:18:01.528Z,27.27
2018-02-17T23:20:30.799Z,31.30
2018-02-17T23:23:00.071Z,34.03
2018-02-17T23:25:29.366Z,31.77
2018-02-17T23:27:58.624Z,33.67
2018-02-17T23:30:27.984Z,32.37
2018-02-17T23:32:57.362Z,28.77
2018-02-17T23:35:27.789Z,29.33
2018-02-17T23:37:57.927Z,28.20
2018-02-17T23:40:28.008Z,29.80
2018-02-17T23:42:57.282Z,31.13
2018-02-17T23:45:27.397Z,29.33
2018-02-17T23:47:56.686Z,29.07
2018-02-17T23:50:26.047Z,39.10
2018-02-17T23:52:55.354Z,32.27
2018-02-17T23:55:24.706Z,39.93
2018-02-17T23:57:54.044Z,32.13
